createdAt,value
2022-12-29T00:00:22.969Z,11.33
2022-12-29T00:02:52.448Z,11.40
2022-12-29T00:05:21.843Z,11.53
2022-12-29T00:07:50.954Z,11.00
2022-12-29T00:10:20.392Z,9.97
2022-12-29T00:13:07.097Z,9.70
2022-12-29T00:15:42.133Z,9.10
2022-12-29T00:18:11.665Z,9.57
2022-12-29T00:20:58.717Z,9.40
2022-12-29T00:23:45.729Z,10.50
2022-12-29T00:26:33.981Z,9.43
2022-12-29T00:29:22.878Z,10.00
2022-12-29T00:32:10.978Z,8.93
2022-12-29T00:34:57.901Z,9.10
2022-12-29T00:37:40.898Z,9.03
2022-12-29T00:40:27.627Z,9.17
2022-12-29T00:43:14.001Z,8.53
2022-12-29T00:45:44.071Z,9.13
2022-12-29T00:48:14.735Z,9.80
2022-12-29T00:50:42.954Z,9.00
2022-12-29T00:53:12.530Z,9.03
2022-12-29T00:55:43.156Z,9.33
2022-12-29T00:58:12.413Z,9.17
2022-12-29T01:00:41.948Z,8.70
2022-12-29T01:03:11.316Z,10.17
2022-12-29T01:05:42.451Z,10.37
2022-12-29T01:08:11.761Z,10.20
2022-12-29T01:10:39.963Z,11.33
2022-12-29T01:13:09.084Z,10.60
2022-12-29T01:15:38.314Z,10.57
2022-12-29T01:18:07.692Z,9.90
2022-12-29T01:20:36.912Z,10.13
2022-12-29T01:23:09.188Z,8.60
2022-12-29T01:25:38.454Z,9.10
2022-12-29T01:28:07.665Z,9.10
2022-12-29T01:30:37.148Z,8.80
2022-12-29T01:33:06.531Z,9.00
2022-12-29T01:35:37.326Z,10.37
2022-12-29T01:38:07.085Z,10.20
2022-12-29T01:40:45.795Z,9.70
2022-12-29T01:43:16.355Z,8.90
2022-12-29T01:45:47.416Z,9.77
2022-12-29T01:48:17.305Z,9.93
2022-12-29T01:50:49.965Z,8.73
2022-12-29T01:53:22.186Z,9.40
2022-12-29T01:55:54.765Z,7.97
2022-12-29T01:58:26.057Z,9.87
2022-12-29T02:01:00.807Z,8.50
2022-12-29T02:03:30.834Z,9.00
2022-12-29T02:06:05.545Z,10.70
2022-12-29T02:08:34.846Z,10.13
2022-12-29T02:11:06.054Z,9.73
2022-12-29T02:13:36.868Z,9.57
2022-12-29T02:16:11.244Z,10.03
2022-12-29T02:18:47.792Z,9.83
2022-12-29T02:21:35.767Z,9.50
2022-12-29T02:24:22.963Z,8.80
2022-12-29T02:27:04.410Z,10.57
2022-12-29T02:29:57.507Z,9.80
2022-12-29T02:32:34.167Z,8.80
2022-12-29T02:35:08.402Z,8.47
2022-12-29T02:37:42.913Z,8.40
2022-12-29T02:40:19.821Z,8.63
2022-12-29T02:42:51.572Z,8.43
2022-12-29T02:45:23.757Z,8.20
2022-12-29T02:47:57.569Z,9.00
2022-12-29T02:50:28.868Z,8.30
2022-12-29T02:53:00.636Z,10.37
2022-12-29T02:55:28.938Z,8.10
2022-12-29T02:58:16.832Z,9.43
2022-12-29T03:01:15.566Z,8.40
2022-12-29T03:03:51.619Z,8.53
2022-12-29T03:06:27.821Z,8.40
2022-12-29T03:09:01.977Z,8.17
2022-12-29T03:11:53.621Z,8.90
2022-12-29T03:14:45.201Z,9.17
2022-12-29T03:17:18.625Z,8.43
2022-12-29T03:19:51.024Z,7.87
2022-12-29T03:22:33.088Z,8.07
2022-12-29T03:25:12.765Z,8.30
2022-12-29T03:27:44.007Z,8.20
2022-12-29T03:30:13.670Z,7.90
2022-12-29T03:32:45.563Z,7.63
2022-12-29T03:35:19.183Z,9.13
2022-12-29T03:37:52.864Z,7.97
2022-12-29T03:40:24.228Z,7.80
2022-12-29T03:42:54.084Z,8.27
2022-12-29T03:45:23.447Z,8.77
2022-12-29T03:47:53.247Z,8.20
2022-12-29T03:50:23.868Z,8.40
2022-12-29T03:52:53.123Z,7.80
2022-12-29T03:55:22.950Z,7.90
2022-12-29T03:57:52.072Z,7.80
2022-12-29T04:00:29.528Z,8.10
2022-12-29T04:02:59.028Z,8.07
2022-12-29T04:05:30.148Z,6.97
2022-12-29T04:07:59.499Z,8.47
2022-12-29T04:10:28.855Z,8.17
2022-12-29T04:13:01.347Z,6.57
2022-12-29T04:15:30.655Z,6.90
2022-12-29T04:18:00.443Z,7.03
2022-12-29T04:20:49.904Z,7.40
2022-12-29T04:23:19.794Z,6.10
2022-12-29T04:25:49.414Z,6.23
2022-12-29T04:28:19.215Z,6.47
2022-12-29T04:31:17.635Z,6.60
2022-12-29T04:33:49.397Z,6.10
2022-12-29T04:36:21.701Z,6.27
2022-12-29T04:38:52.604Z,6.50
2022-12-29T04:41:22.187Z,5.77
2022-12-29T04:43:51.651Z,5.20
2022-12-29T04:46:39.696Z,5.53
2022-12-29T04:49:19.832Z,5.50
2022-12-29T04:52:00.616Z,5.13
2022-12-29T04:54:30.178Z,5.83
2022-12-29T04:57:09.452Z,5.93
2022-12-29T04:59:40.978Z,5.53
2022-12-29T05:02:11.620Z,5.40
2022-12-29T05:04:41.025Z,6.77
2022-12-29T05:07:11.822Z,5.90
2022-12-29T05:09:40.986Z,5.73
2022-12-29T05:12:10.287Z,6.43
2022-12-29T05:14:45.760Z,5.50
2022-12-29T05:17:15.741Z,5.50
2022-12-29T05:19:45.702Z,5.40
2022-12-29T05:22:16.761Z,4.57
2022-12-29T05:24:48.286Z,4.90
2022-12-29T05:27:18.161Z,4.67
2022-12-29T05:30:11.185Z,5.47
2022-12-29T05:32:40.464Z,6.07
2022-12-29T05:35:10.880Z,4.20
2022-12-29T05:37:42.153Z,4.40
2022-12-29T05:40:11.912Z,4.10
2022-12-29T05:42:42.425Z,5.13
2022-12-29T05:45:22.248Z,4.97
2022-12-29T05:48:05.973Z,5.53
2022-12-29T05:50:49.885Z,5.27
2022-12-29T05:53:22.978Z,5.37
2022-12-29T05:55:52.750Z,6.17
2022-12-29T05:58:23.144Z,5.33
2022-12-29T06:01:19.034Z,5.87
2022-12-29T06:03:48.860Z,5.40
2022-12-29T06:06:20.745Z,6.00
2022-12-29T06:08:51.678Z,42.40
2022-12-29T06:11:21.927Z,5.30
2022-12-29T06:13:58.048Z,5.30
2022-12-29T06:16:27.599Z,4.10
2022-12-29T06:19:00.248Z,4.33
2022-12-29T06:21:29.728Z,3.07
2022-12-29T06:24:02.529Z,3.53
2022-12-29T06:26:31.912Z,3.10
2022-12-29T06:29:01.641Z,2.40
2022-12-29T06:31:30.927Z,3.40
2022-12-29T06:34:04.938Z,3.10
2022-12-29T06:36:37.262Z,3.50
2022-12-29T06:39:09.072Z,2.97
2022-12-29T06:41:39.004Z,3.43
2022-12-29T06:44:17.136Z,2.83
2022-12-29T06:46:53.943Z,2.20
2022-12-29T06:49:23.464Z,3.70
2022-12-29T06:51:52.618Z,11.50
2022-12-29T06:54:23.296Z,5.37
2022-12-29T06:56:52.592Z,2.70
2022-12-29T06:59:21.838Z,3.40
2022-12-29T07:01:51.416Z,3.03
2022-12-29T07:04:21.047Z,3.30
2022-12-29T07:06:50.814Z,3.73
2022-12-29T07:09:19.939Z,4.33
2022-12-29T07:11:50.659Z,3.90
2022-12-29T07:14:19.937Z,4.70
2022-12-29T07:16:49.201Z,4.20
2022-12-29T07:19:18.527Z,3.57
2022-12-29T07:21:47.787Z,3.73
2022-12-29T07:24:16.950Z,4.37
2022-12-29T07:26:46.210Z,4.33
2022-12-29T07:29:16.922Z,4.40
2022-12-29T07:31:46.860Z,3.70
2022-12-29T07:34:15.980Z,3.37
2022-12-29T07:36:45.268Z,3.53
2022-12-29T07:39:14.426Z,4.50
2022-12-29T07:41:43.987Z,4.20
2022-12-29T07:44:20.903Z,5.63
2022-12-29T07:46:57.626Z,4.93
2022-12-29T07:49:28.077Z,5.57
2022-12-29T07:51:57.165Z,5.20
2022-12-29T07:54:26.455Z,4.80
2022-12-29T07:56:55.788Z,5.23
2022-12-29T07:59:26.338Z,4.43
2022-12-29T08:01:55.727Z,4.60
2022-12-29T08:04:25.350Z,4.53
2022-12-29T08:06:54.926Z,4.43
2022-12-29T08:09:24.656Z,4.27
2022-12-29T08:11:54.329Z,5.07
2022-12-29T08:14:23.520Z,5.20
2022-12-29T08:16:54.139Z,4.90
2022-12-29T08:19:23.648Z,4.87
2022-12-29T08:21:53.646Z,3.50
2022-12-29T08:24:23.116Z,4.63
2022-12-29T08:26:52.352Z,3.40
2022-12-29T08:29:22.629Z,4.43
2022-12-29T08:31:52.208Z,4.37
2022-12-29T08:34:22.814Z,2.50
2022-12-29T08:36:52.152Z,3.70
2022-12-29T08:39:22.230Z,3.50
2022-12-29T08:41:51.685Z,2.50
2022-12-29T08:44:20.841Z,2.70
2022-12-29T08:46:50.092Z,2.87
2022-12-29T08:49:19.590Z,2.50
2022-12-29T08:51:50.697Z,2.30
2022-12-29T08:54:19.893Z,3.03
2022-12-29T08:56:49.169Z,2.43
2022-12-29T08:59:19.072Z,2.53
2022-12-29T09:01:50.689Z,3.60
2022-12-29T09:04:20.247Z,2.53
2022-12-29T09:06:50.968Z,2.80
2022-12-29T09:09:20.824Z,3.27
2022-12-29T09:11:49.934Z,2.93
2022-12-29T09:14:19.180Z,2.37
2022-12-29T09:17:05.685Z,2.50
2022-12-29T09:19:34.942Z,2.20
2022-12-29T09:22:05.680Z,2.30
2022-12-29T09:24:35.031Z,2.80
2022-12-29T09:27:04.150Z,2.23
2022-12-29T09:29:33.502Z,3.03
2022-12-29T09:32:07.533Z,2.50
2022-12-29T09:34:37.757Z,2.90
2022-12-29T09:37:08.395Z,2.50
2022-12-29T09:39:37.700Z,2.97
2022-12-29T09:42:09.895Z,2.97
2022-12-29T09:44:48.864Z,2.43
2022-12-29T09:47:19.620Z,2.63
2022-12-29T09:49:51.604Z,2.30
2022-12-29T09:52:26.907Z,4.67
2022-12-29T09:55:02.941Z,2.60
2022-12-29T09:57:37.026Z,2.60
2022-12-29T10:00:07.639Z,2.80
2022-12-29T10:02:43.648Z,2.40
2022-12-29T10:05:19.336Z,2.57
2022-12-29T10:07:54.476Z,2.50
2022-12-29T10:10:29.612Z,2.27
2022-12-29T10:13:03.724Z,3.10
2022-12-29T10:15:40.079Z,2.60
2022-12-29T10:18:15.907Z,2.50
2022-12-29T10:20:50.285Z,2.93
2022-12-29T10:23:29.472Z,2.10
2022-12-29T10:25:59.281Z,2.67
2022-12-29T10:28:34.995Z,2.53
2022-12-29T10:31:08.873Z,3.57
2022-12-29T10:33:39.768Z,3.10
2022-12-29T10:36:15.626Z,3.10
2022-12-29T10:38:49.029Z,2.67
2022-12-29T10:41:21.090Z,3.30
2022-12-29T10:43:51.810Z,2.77
2022-12-29T10:46:22.839Z,3.50
2022-12-29T10:48:52.203Z,2.83
2022-12-29T10:51:24.398Z,3.47
2022-12-29T10:53:57.646Z,3.70
2022-12-29T10:56:32.272Z,2.87
2022-12-29T10:59:03.606Z,2.50
2022-12-29T11:01:36.985Z,2.90
2022-12-29T11:04:07.277Z,2.60
2022-12-29T11:06:36.464Z,2.40
2022-12-29T11:09:14.074Z,2.40
2022-12-29T11:11:44.421Z,3.27
2022-12-29T11:14:17.778Z,2.40
2022-12-29T11:16:47.317Z,2.60
2022-12-29T11:19:24.290Z,3.07
2022-12-29T11:21:53.619Z,2.90
2022-12-29T11:24:26.339Z,3.03
2022-12-29T11:26:58.637Z,2.40
2022-12-29T11:29:29.619Z,4.10
2022-12-29T11:32:00.410Z,2.70
2022-12-29T11:34:33.939Z,3.97
2022-12-29T11:37:03.945Z,3.10
2022-12-29T11:39:37.069Z,3.20
2022-12-29T11:42:10.626Z,2.37
2022-12-29T11:44:40.944Z,3.23
2022-12-29T11:47:12.111Z,4.47
2022-12-29T11:49:41.609Z,2.67
2022-12-29T11:52:10.855Z,4.20
2022-12-29T11:54:41.650Z,3.13
2022-12-29T11:57:15.710Z,4.00
2022-12-29T11:59:46.351Z,5.40
2022-12-29T12:02:40.595Z,3.47
2022-12-29T12:05:22.596Z,3.10
2022-12-29T12:07:54.615Z,2.83
2022-12-29T12:10:26.808Z,2.77
2022-12-29T12:12:59.301Z,2.30
2022-12-29T12:15:30.772Z,3.33
2022-12-29T12:18:03.752Z,2.63
2022-12-29T12:20:40.153Z,2.23
2022-12-29T12:23:15.939Z,2.53
2022-12-29T12:25:51.266Z,2.77
2022-12-29T12:28:23.836Z,2.73
2022-12-29T12:30:55.397Z,2.73
2022-12-29T12:33:27.970Z,2.60
2022-12-29T12:36:07.097Z,2.77
2022-12-29T12:38:40.891Z,3.53
2022-12-29T12:44:07.368Z,2.97
2022-12-29T12:46:45.218Z,2.40
2022-12-29T12:49:26.955Z,2.13
2022-12-29T12:52:04.832Z,2.60
2022-12-29T12:54:41.955Z,2.67
2022-12-29T12:57:18.176Z,2.87
2022-12-29T12:59:52.646Z,2.90
2022-12-29T13:02:37.729Z,2.70
2022-12-29T13:05:13.113Z,3.20
2022-12-29T13:07:49.011Z,2.77
2022-12-29T13:10:33.957Z,2.20
2022-12-29T13:13:09.332Z,2.50
2022-12-29T13:15:44.370Z,2.27
2022-12-29T13:18:19.666Z,3.00
2022-12-29T13:20:51.068Z,3.50
2022-12-29T13:23:24.218Z,3.07
2022-12-29T13:25:54.418Z,2.40
2022-12-29T13:28:27.749Z,3.40
2022-12-29T13:31:03.506Z,2.63
2022-12-29T13:33:41.010Z,3.00
2022-12-29T13:36:13.574Z,2.53
2022-12-29T13:38:46.253Z,2.40
2022-12-29T13:41:17.376Z,2.40
2022-12-29T13:43:49.612Z,2.80
2022-12-29T13:46:20.432Z,2.73
2022-12-29T13:48:52.288Z,5.13
2022-12-29T13:51:27.750Z,2.87
2022-12-29T13:54:15.694Z,2.53
2022-12-29T13:56:49.249Z,2.37
2022-12-29T13:59:22.808Z,3.00
2022-12-29T14:01:56.093Z,2.90
2022-12-29T14:04:26.647Z,2.50
2022-12-29T14:07:04.134Z,2.40
2022-12-29T14:09:43.295Z,3.87
2022-12-29T14:12:33.725Z,3.37
2022-12-29T14:15:18.409Z,3.10
2022-12-29T14:18:02.578Z,2.70
2022-12-29T14:20:31.933Z,2.00
2022-12-29T14:23:02.229Z,3.17
2022-12-29T14:25:46.436Z,2.20
2022-12-29T14:28:18.936Z,2.90
2022-12-29T14:30:54.118Z,2.80
2022-12-29T14:33:24.822Z,2.40
2022-12-29T14:35:54.527Z,2.63
2022-12-29T14:38:28.314Z,3.30
2022-12-29T14:41:16.154Z,2.60
2022-12-29T14:43:57.588Z,2.87
2022-12-29T14:46:28.791Z,2.70
2022-12-29T14:49:02.253Z,2.20
2022-12-29T14:51:33.931Z,2.70
2022-12-29T14:54:03.168Z,3.30
2022-12-29T14:56:33.549Z,2.37
2022-12-29T14:59:04.815Z,2.63
2022-12-29T15:01:41.650Z,2.30
2022-12-29T15:04:18.451Z,2.63
2022-12-29T15:06:47.755Z,2.50
2022-12-29T15:09:24.569Z,2.53
2022-12-29T15:11:54.849Z,2.47
2022-12-29T15:14:31.975Z,2.30
2022-12-29T15:17:02.734Z,2.27
2022-12-29T15:19:32.191Z,2.57
2022-12-29T15:22:01.417Z,2.20
2022-12-29T15:24:30.639Z,2.57
2022-12-29T15:26:59.930Z,3.17
2022-12-29T15:29:34.292Z,2.70
2022-12-29T15:32:15.069Z,2.90
2022-12-29T15:34:44.677Z,2.70
2022-12-29T15:37:19.925Z,2.73
2022-12-29T15:39:49.884Z,2.77
2022-12-29T15:42:24.567Z,2.43
2022-12-29T15:44:58.044Z,3.30
2022-12-29T15:47:34.343Z,2.83
2022-12-29T15:50:05.862Z,4.10
2022-12-29T15:52:36.298Z,4.60
2022-12-29T15:55:05.775Z,2.20
2022-12-29T15:57:40.377Z,2.70
2022-12-29T16:00:26.844Z,2.60
2022-12-29T16:02:58.855Z,2.97
2022-12-29T16:05:34.591Z,2.50
2022-12-29T16:08:04.002Z,3.80
2022-12-29T16:10:35.147Z,2.47
2022-12-29T16:13:05.770Z,2.80
2022-12-29T16:15:35.167Z,2.50
2022-12-29T16:18:05.903Z,2.77
2022-12-29T16:20:41.262Z,2.97
2022-12-29T16:23:20.037Z,2.90
2022-12-29T16:25:49.789Z,2.80
2022-12-29T16:28:20.819Z,2.60
2022-12-29T16:30:50.609Z,3.20
2022-12-29T16:33:35.941Z,3.37
2022-12-29T16:36:05.510Z,3.73
2022-12-29T16:38:36.256Z,3.97
2022-12-29T16:41:06.039Z,4.10
2022-12-29T16:43:36.332Z,3.57
2022-12-29T16:46:28.691Z,3.80
2022-12-29T16:48:59.658Z,8.07
2022-12-29T16:51:33.146Z,7.90
2022-12-29T16:54:02.896Z,5.00
2022-12-29T16:56:34.105Z,4.57
2022-12-29T16:59:05.878Z,4.30
2022-12-29T17:01:38.205Z,3.57
2022-12-29T17:04:11.330Z,4.50
2022-12-29T17:06:41.035Z,6.60
2022-12-29T17:09:20.507Z,6.57
2022-12-29T17:12:05.396Z,6.93
2022-12-29T17:14:45.281Z,8.80
2022-12-29T17:17:17.095Z,6.53
2022-12-29T17:19:50.033Z,6.37
2022-12-29T17:22:20.600Z,5.60
2022-12-29T17:24:49.799Z,6.20
2022-12-29T17:27:24.433Z,5.90
2022-12-29T17:29:54.231Z,5.67
2022-12-29T17:32:23.426Z,6.97
2022-12-29T17:34:54.298Z,7.53
2022-12-29T17:37:34.354Z,9.47
2022-12-29T17:40:03.802Z,5.80
2022-12-29T17:42:34.912Z,7.30
2022-12-29T17:45:04.331Z,9.07
2022-12-29T17:47:33.640Z,7.20
2022-12-29T17:50:04.873Z,6.90
2022-12-29T17:52:35.088Z,5.53
2022-12-29T17:55:04.755Z,4.67
2022-12-29T17:57:33.948Z,3.37
2022-12-29T18:00:03.682Z,3.93
2022-12-29T18:02:41.691Z,6.87
2022-12-29T18:05:16.861Z,7.00
2022-12-29T18:07:46.305Z,3.67
2022-12-29T18:10:16.059Z,4.23
2022-12-29T18:12:46.501Z,4.77
2022-12-29T18:15:20.285Z,3.90
2022-12-29T18:17:49.679Z,3.73
2022-12-29T18:20:20.402Z,3.20
2022-12-29T18:22:50.506Z,2.90
2022-12-29T18:25:23.551Z,3.40
2022-12-29T18:27:52.983Z,2.57
2022-12-29T18:30:22.131Z,2.63
2022-12-29T18:32:51.373Z,7.00
2022-12-29T18:35:25.169Z,7.93
2022-12-29T18:37:54.448Z,7.60
2022-12-29T18:40:23.626Z,7.20
2022-12-29T18:42:53.029Z,7.90
2022-12-29T18:45:24.224Z,8.97
2022-12-29T18:47:53.713Z,8.93
2022-12-29T18:50:24.685Z,8.63
2022-12-29T18:52:58.553Z,7.70
2022-12-29T18:55:31.497Z,8.00
2022-12-29T18:58:01.739Z,9.50
2022-12-29T19:00:30.934Z,7.13
2022-12-29T19:03:00.423Z,6.77
2022-12-29T19:05:31.974Z,8.07
2022-12-29T19:08:01.301Z,6.80
2022-12-29T19:10:30.491Z,9.10
2022-12-29T19:12:59.819Z,7.10
2022-12-29T19:15:29.873Z,9.20
2022-12-29T19:18:41.725Z,8.30
2022-12-29T19:20:51.267Z,8.00
2022-12-29T19:23:22.243Z,8.17
2022-12-29T19:25:52.599Z,8.70
2022-12-29T19:28:22.662Z,7.90
2022-12-29T19:30:52.993Z,14.50
2022-12-29T19:33:22.832Z,5.40
2022-12-29T19:35:53.805Z,5.30
2022-12-29T19:38:22.968Z,5.70
2022-12-29T19:40:53.095Z,5.50
2022-12-29T19:43:22.357Z,6.60
2022-12-29T19:45:53.578Z,6.83
2022-12-29T19:48:22.957Z,5.50
2022-12-29T19:50:53.528Z,5.73
2022-12-29T19:53:22.828Z,7.37
2022-12-29T19:55:52.054Z,6.67
2022-12-29T19:58:21.283Z,6.57
2022-12-29T20:00:51.457Z,6.87
2022-12-29T20:03:20.732Z,7.40
2022-12-29T20:05:51.720Z,8.87
2022-12-29T20:08:23.101Z,6.63
2022-12-29T20:10:58.627Z,7.27
2022-12-29T20:13:27.876Z,6.73
2022-12-29T20:16:00.977Z,5.40
2022-12-29T20:18:30.492Z,5.27
2022-12-29T20:21:03.424Z,8.17
2022-12-29T20:23:34.998Z,5.70
2022-12-29T20:26:04.258Z,7.20
2022-12-29T20:28:33.380Z,5.70
2022-12-29T20:31:03.897Z,6.00
2022-12-29T20:33:33.870Z,7.50
2022-12-29T20:36:06.534Z,12.53
2022-12-29T20:38:37.207Z,11.17
2022-12-29T20:41:06.792Z,9.27
2022-12-29T20:43:36.368Z,12.17
2022-12-29T20:46:05.734Z,12.30
2022-12-29T20:48:34.902Z,9.90
2022-12-29T20:51:04.367Z,9.37
2022-12-29T20:53:34.682Z,9.50
2022-12-29T20:56:07.314Z,12.83
2022-12-29T20:58:59.947Z,9.27
2022-12-29T21:01:27.433Z,13.20
2022-12-29T21:03:56.755Z,14.50
2022-12-29T21:06:26.061Z,11.17
2022-12-29T21:08:55.738Z,19.33
2022-12-29T21:11:26.463Z,12.40
2022-12-29T21:13:59.269Z,9.43
2022-12-29T21:16:30.627Z,9.50
2022-12-29T21:18:59.790Z,8.87
2022-12-29T21:21:29.056Z,10.13
2022-12-29T21:24:05.912Z,9.97
2022-12-29T21:26:36.614Z,10.40
2022-12-29T21:29:05.763Z,9.70
2022-12-29T21:31:35.577Z,12.30
2022-12-29T21:34:06.174Z,11.17
2022-12-29T21:36:35.765Z,10.73
2022-12-29T21:39:05.430Z,9.90
2022-12-29T21:41:36.563Z,10.57
2022-12-29T21:44:23.814Z,9.77
2022-12-29T21:46:53.117Z,5.20
2022-12-29T21:49:24.030Z,9.87
2022-12-29T21:51:54.254Z,10.33
2022-12-29T21:54:42.412Z,11.57
2022-12-29T21:57:33.678Z,10.70
2022-12-29T22:00:20.782Z,7.23
2022-12-29T22:03:07.688Z,3.63
2022-12-29T22:05:54.598Z,3.30
2022-12-29T22:08:41.591Z,4.07
2022-12-29T22:11:28.362Z,3.10
2022-12-29T22:14:00.554Z,2.93
2022-12-29T22:16:29.852Z,2.87
2022-12-29T22:18:59.202Z,3.00
2022-12-29T22:21:28.482Z,3.17
2022-12-29T22:23:57.676Z,2.73
2022-12-29T22:26:27.140Z,3.37
2022-12-29T22:28:56.499Z,3.00
2022-12-29T22:31:29.187Z,2.93
2022-12-29T22:33:59.476Z,2.73
2022-12-29T22:36:29.016Z,3.87
2022-12-29T22:38:58.415Z,3.17
2022-12-29T22:41:27.615Z,4.17
2022-12-29T22:43:57.360Z,5.37
2022-12-29T22:46:28.071Z,4.37
2022-12-29T22:48:59.254Z,3.50
2022-12-29T22:51:28.494Z,4.90
2022-12-29T22:53:58.185Z,4.50
2022-12-29T22:56:27.497Z,4.50
2022-12-29T22:58:56.656Z,6.40
2022-12-29T23:01:27.406Z,5.27
2022-12-29T23:04:11.124Z,4.70
2022-12-29T23:06:46.301Z,4.33
2022-12-29T23:09:18.201Z,4.00
2022-12-29T23:11:47.623Z,3.70
2022-12-29T23:14:19.288Z,5.27
2022-12-29T23:16:50.195Z,4.10
2022-12-29T23:19:19.454Z,4.00
2022-12-29T23:21:48.625Z,3.90
2022-12-29T23:24:17.804Z,3.87
2022-12-29T23:26:48.124Z,4.10
2022-12-29T23:29:18.343Z,3.70
2022-12-29T23:31:48.232Z,4.00
2022-12-29T23:34:19.517Z,4.03
2022-12-29T23:36:48.762Z,4.10
2022-12-29T23:39:20.376Z,4.23
2022-12-29T23:41:49.565Z,4.00
2022-12-29T23:44:18.731Z,3.90
2022-12-29T23:46:48.120Z,4.07
2022-12-29T23:49:18.705Z,3.70
2022-12-29T23:51:47.909Z,3.80
2022-12-29T23:54:17.164Z,4.40
2022-12-29T23:56:46.370Z,4.20
2022-12-29T23:59:15.569Z,4.10
